createdAt,value
2023-03-06T00:00:08.788Z,97807.13
2023-03-06T00:01:00.891Z,97804.44
2023-03-06T00:01:51.925Z,97806.19
2023-03-06T00:02:41.922Z,97800.94
2023-03-06T00:03:33.749Z,97806.19
2023-03-06T00:04:24.052Z,97795.69
2023-03-06T00:05:14.649Z,97805.31
2023-03-06T00:06:05.203Z,97808.84
2023-03-06T00:06:55.094Z,97799.25
2023-03-06T00:07:45.261Z,97796.66
2023-03-06T00:08:35.349Z,97799.94
2023-03-06T00:09:25.892Z,97802.59
2023-03-06T00:10:21.170Z,97806.03
2023-03-06T00:11:14.943Z,97797.38
2023-03-06T00:12:05.154Z,97795.72
2023-03-06T00:12:56.762Z,97799.16
2023-03-06T00:13:46.976Z,97799.19
2023-03-06T00:14:37.615Z,97800.88
2023-03-06T00:15:28.368Z,97797.44
2023-03-06T00:16:19.022Z,97798.31
2023-03-06T00:17:09.352Z,97796.56
2023-03-06T00:18:00.174Z,97796.53
2023-03-06T00:18:50.144Z,97801.75
2023-03-06T00:19:40.644Z,97803.63
2023-03-06T00:20:30.772Z,97795.66
2023-03-06T00:21:21.145Z,97798.28
2023-03-06T00:22:15.628Z,97797.38
2023-03-06T00:23:06.154Z,97793.88
2023-03-06T00:23:56.522Z,97795.59
2023-03-06T00:24:46.951Z,97794.78
2023-03-06T00:25:38.873Z,97797.28
2023-03-06T00:26:29.254Z,97791.25
2023-03-06T00:27:19.275Z,97787.84
2023-03-06T00:28:09.768Z,97794.84
2023-03-06T00:29:00.503Z,97787.09
2023-03-06T00:29:55.363Z,97790.56
2023-03-06T00:30:47.572Z,97794.00
2023-03-06T00:31:37.641Z,97792.19
2023-03-06T00:32:28.368Z,97785.16
2023-03-06T00:33:19.007Z,97785.34
2023-03-06T00:34:08.986Z,97781.00
2023-03-06T00:34:59.873Z,97787.22
2023-03-06T00:35:50.093Z,97779.22
2023-03-06T00:36:41.732Z,97783.59
2023-03-06T00:37:32.008Z,97781.00
2023-03-06T00:38:22.989Z,97777.47
2023-03-06T00:39:13.308Z,97774.09
2023-03-06T00:40:07.944Z,97778.44
2023-03-06T00:40:58.287Z,97776.66
2023-03-06T00:41:51.268Z,97770.53
2023-03-06T00:42:41.929Z,97774.03
2023-03-06T00:43:32.648Z,97770.56
2023-03-06T00:44:22.970Z,97774.91
2023-03-06T00:45:13.539Z,97774.06
2023-03-06T00:46:04.136Z,97767.09
2023-03-06T00:46:54.725Z,97768.81
2023-03-06T00:47:44.976Z,97778.38
2023-03-06T00:48:35.540Z,97775.84
2023-03-06T00:49:25.938Z,97776.75
2023-03-06T00:50:16.506Z,97776.72
2023-03-06T00:51:12.764Z,97773.22
2023-03-06T00:52:04.341Z,97773.22
2023-03-06T00:52:54.580Z,97771.41
2023-03-06T00:53:44.932Z,97771.47
2023-03-06T00:54:35.183Z,97771.41
2023-03-06T00:55:25.924Z,97769.72
2023-03-06T00:56:18.896Z,97772.41
2023-03-06T00:57:09.907Z,97770.09
2023-03-06T00:58:00.446Z,97770.88
2023-03-06T00:58:51.122Z,97774.59
2023-03-06T00:59:41.498Z,97771.19
2023-03-06T01:00:31.913Z,97775.53
2023-03-06T01:01:23.279Z,97767.31
2023-03-06T01:02:14.269Z,97764.62
2023-03-06T01:03:05.180Z,97767.94
2023-03-06T01:03:55.711Z,97764.50
2023-03-06T01:04:46.340Z,97772.19
2023-03-06T01:05:37.243Z,97770.03
2023-03-06T01:06:27.884Z,97769.41
2023-03-06T01:07:18.208Z,97771.09
2023-03-06T01:08:08.931Z,97767.41
2023-03-06T01:08:58.981Z,97765.47
2023-03-06T01:09:50.064Z,97760.25
2023-03-06T01:10:41.006Z,97764.47
2023-03-06T01:11:31.639Z,97764.47
2023-03-06T01:12:23.463Z,97759.22
2023-03-06T01:13:14.365Z,97763.50
2023-03-06T01:14:05.242Z,97758.34
2023-03-06T01:14:55.520Z,97759.41
2023-03-06T01:15:45.894Z,97761.03
2023-03-06T01:16:36.655Z,97763.59
2023-03-06T01:17:27.283Z,97756.66
2023-03-06T01:18:18.161Z,97750.47
2023-03-06T01:19:11.011Z,97754.72
2023-03-06T01:20:01.192Z,97753.00
2023-03-06T01:20:51.590Z,97755.56
2023-03-06T01:21:42.017Z,97761.75
2023-03-06T01:22:32.737Z,97759.13
2023-03-06T01:23:23.303Z,97756.41
2023-03-06T01:24:13.752Z,97762.50
2023-03-06T01:25:04.359Z,97761.63
2023-03-06T01:25:54.806Z,97759.13
2023-03-06T01:26:45.238Z,97755.56
2023-03-06T01:27:35.977Z,97749.50
2023-03-06T01:28:26.630Z,97758.16
2023-03-06T01:29:17.497Z,97755.56
2023-03-06T01:30:08.855Z,97756.50
2023-03-06T01:31:01.279Z,97748.72
2023-03-06T01:31:51.654Z,97752.06
2023-03-06T01:32:43.057Z,97753.91
2023-03-06T01:33:34.287Z,97747.72
2023-03-06T01:34:24.669Z,97752.94
2023-03-06T01:35:15.384Z,97747.63
2023-03-06T01:36:07.638Z,97749.31
2023-03-06T01:36:57.893Z,97738.78
2023-03-06T01:37:48.320Z,97747.69
2023-03-06T01:38:39.001Z,97743.34
2023-03-06T01:39:31.596Z,97740.69
2023-03-06T01:40:21.721Z,97740.72
2023-03-06T01:41:15.740Z,97745.13
2023-03-06T01:42:06.790Z,97739.88
2023-03-06T01:42:57.266Z,97735.53
2023-03-06T01:43:47.812Z,97741.66
2023-03-06T01:44:56.999Z,97745.03
2023-03-06T01:45:52.122Z,97742.44
2023-03-06T01:46:43.861Z,97745.91
2023-03-06T01:47:34.534Z,97741.66
2023-03-06T01:48:24.862Z,97745.91
2023-03-06T01:49:29.506Z,97739.00
2023-03-06T01:50:19.318Z,97744.28
2023-03-06T01:51:09.974Z,97740.75
2023-03-06T01:52:02.763Z,97752.03
2023-03-06T01:52:57.792Z,97743.34
2023-03-06T01:53:48.091Z,97749.41
2023-03-06T01:54:40.048Z,97746.81
2023-03-06T01:55:32.772Z,97748.59
2023-03-06T01:56:23.611Z,97746.81
2023-03-06T01:57:17.860Z,97743.34
2023-03-06T01:58:09.382Z,97743.34
2023-03-06T01:58:59.538Z,97738.28
2023-03-06T01:59:54.220Z,97741.81
2023-03-06T02:00:44.767Z,97744.37
2023-03-06T02:01:35.740Z,97746.19
2023-03-06T02:02:26.305Z,97733.31
2023-03-06T02:03:20.807Z,97744.44
2023-03-06T02:04:14.035Z,97744.34
2023-03-06T02:05:05.028Z,97742.66
2023-03-06T02:05:54.909Z,97742.63
2023-03-06T02:06:45.600Z,97747.75
2023-03-06T02:07:36.517Z,97738.31
2023-03-06T02:08:27.188Z,97740.97
2023-03-06T02:09:17.301Z,97739.22
2023-03-06T02:10:08.068Z,97740.06
2023-03-06T02:11:14.632Z,97737.44
2023-03-06T02:12:09.804Z,97740.03
2023-03-06T02:12:59.955Z,97730.44
2023-03-06T02:13:50.745Z,97735.69
2023-03-06T02:14:41.212Z,97738.25
2023-03-06T02:15:32.028Z,97735.53
2023-03-06T02:16:25.494Z,97727.84
2023-03-06T02:17:17.553Z,97737.41
2023-03-06T02:18:07.893Z,97730.53
2023-03-06T02:18:59.066Z,97733.19
2023-03-06T02:20:01.590Z,97728.78
2023-03-06T02:20:53.667Z,97730.47
2023-03-06T02:21:44.478Z,97726.12
2023-03-06T02:22:46.224Z,97734.88
2023-03-06T02:23:55.305Z,97733.06
2023-03-06T02:25:20.886Z,97734.91
2023-03-06T02:26:11.332Z,97732.19
2023-03-06T02:27:02.231Z,97735.69
2023-03-06T02:27:52.980Z,97733.16
2023-03-06T02:28:43.601Z,97733.97
2023-03-06T02:29:34.525Z,97729.56
2023-03-06T02:30:25.608Z,97733.16
2023-03-06T02:31:24.658Z,97731.41
2023-03-06T02:32:14.772Z,97728.78
2023-03-06T02:33:05.259Z,97734.00
2023-03-06T02:34:06.457Z,97730.66
2023-03-06T02:34:57.492Z,97727.88
2023-03-06T02:35:51.306Z,97724.44
2023-03-06T02:36:43.903Z,97727.97
2023-03-06T02:37:34.673Z,97734.88
2023-03-06T02:38:33.313Z,97733.16
2023-03-06T02:39:25.322Z,97734.88
2023-03-06T02:40:15.445Z,97729.56
2023-03-06T02:41:07.271Z,97729.69
2023-03-06T02:41:57.901Z,97730.56
2023-03-06T02:42:50.040Z,97728.81
2023-03-06T02:43:43.789Z,97726.16
2023-03-06T02:44:34.891Z,97733.06
2023-03-06T02:45:34.920Z,97726.12
2023-03-06T02:46:25.298Z,97732.22
2023-03-06T02:47:15.860Z,97731.31
2023-03-06T02:48:09.535Z,97730.53
2023-03-06T02:49:00.408Z,97739.22
2023-03-06T02:49:50.962Z,97731.38
2023-03-06T02:50:41.705Z,97733.00
2023-03-06T02:51:32.374Z,97737.44
2023-03-06T02:52:23.033Z,97732.25
2023-03-06T02:53:14.596Z,97730.44
2023-03-06T02:54:05.224Z,97741.66
2023-03-06T02:54:55.551Z,97737.31
2023-03-06T02:55:46.615Z,97723.47
2023-03-06T02:56:37.122Z,97730.50
2023-03-06T02:57:28.538Z,97733.16
2023-03-06T02:58:20.041Z,97739.19
2023-03-06T02:59:10.407Z,97734.88
2023-03-06T03:00:00.809Z,97731.34
2023-03-06T03:00:51.274Z,97736.50
2023-03-06T03:01:41.622Z,97734.78
2023-03-06T03:02:31.948Z,97732.09
2023-03-06T03:03:22.791Z,97735.66
2023-03-06T03:04:13.152Z,97737.31
2023-03-06T03:05:03.511Z,97732.28
2023-03-06T03:05:54.106Z,97730.56
2023-03-06T03:06:44.550Z,97727.94
2023-03-06T03:07:34.971Z,97733.19
2023-03-06T03:08:25.168Z,97729.72
2023-03-06T03:09:15.631Z,97734.97
2023-03-06T03:10:06.231Z,97731.34
2023-03-06T03:10:56.890Z,97734.34
2023-03-06T03:11:46.881Z,97735.31
2023-03-06T03:12:37.799Z,97733.59
2023-03-06T03:13:28.395Z,97734.50
2023-03-06T03:14:18.655Z,97734.25
2023-03-06T03:15:09.457Z,97729.75
2023-03-06T03:16:02.059Z,97727.13
2023-03-06T03:16:52.688Z,97739.28
2023-03-06T03:17:43.417Z,97739.44
2023-03-06T03:18:33.648Z,97735.19
2023-03-06T03:19:23.682Z,97731.81
2023-03-06T03:20:15.862Z,97731.53
2023-03-06T03:21:11.121Z,97726.34
2023-03-06T03:22:01.575Z,97726.31
2023-03-06T03:22:53.439Z,97724.44
2023-03-06T03:23:43.757Z,97728.88
2023-03-06T03:24:34.383Z,97720.16
2023-03-06T03:25:25.452Z,97726.16
2023-03-06T03:26:17.954Z,97725.34
2023-03-06T03:27:09.204Z,97723.56
2023-03-06T03:27:59.374Z,97721.81
2023-03-06T03:28:49.995Z,97726.16
2023-03-06T03:29:40.890Z,97731.47
2023-03-06T03:30:31.747Z,97717.47
2023-03-06T03:31:22.333Z,97723.56
2023-03-06T03:32:12.942Z,97724.41
2023-03-06T03:33:03.615Z,97724.44
2023-03-06T03:33:54.197Z,97724.47
2023-03-06T03:34:44.570Z,97718.34
2023-03-06T03:35:34.763Z,97723.53
2023-03-06T03:36:27.435Z,97723.56
2023-03-06T03:37:18.104Z,97717.44
2023-03-06T03:38:08.024Z,97720.06
2023-03-06T03:38:58.633Z,97720.06
2023-03-06T03:39:49.166Z,97719.00
2023-03-06T03:40:39.329Z,97725.19
2023-03-06T03:41:29.869Z,97720.75
2023-03-06T03:42:20.479Z,97724.28
2023-03-06T03:43:10.835Z,97720.03
2023-03-06T03:44:01.216Z,97718.34
2023-03-06T03:44:51.260Z,97722.56
2023-03-06T03:45:41.498Z,97711.34
2023-03-06T03:46:32.227Z,97720.78
2023-03-06T03:47:22.719Z,97720.75
2023-03-06T03:48:13.183Z,97719.81
2023-03-06T03:49:03.335Z,97714.72
2023-03-06T03:49:53.857Z,97712.13
2023-03-06T03:50:44.611Z,97715.53
2023-03-06T03:51:35.081Z,97707.78
2023-03-06T03:52:25.377Z,97712.25
2023-03-06T03:53:15.700Z,97714.78
2023-03-06T03:54:06.969Z,97714.87
2023-03-06T03:54:57.335Z,97714.69
2023-03-06T03:55:48.654Z,97715.59
2023-03-06T03:56:40.750Z,97718.34
2023-03-06T03:57:31.190Z,97714.87
2023-03-06T03:58:21.950Z,97715.72
2023-03-06T03:59:12.318Z,97718.34
2023-03-06T04:00:03.946Z,97719.97
2023-03-06T04:00:54.421Z,97714.81
2023-03-06T04:01:46.000Z,97715.63
2023-03-06T04:02:36.303Z,97715.56
2023-03-06T04:03:26.813Z,97718.12
2023-03-06T04:04:17.306Z,97721.63
2023-03-06T04:05:08.123Z,97719.81
2023-03-06T04:05:58.785Z,97718.97
2023-03-06T04:06:49.525Z,97714.59
2023-03-06T04:07:39.641Z,97719.88
2023-03-06T04:08:30.074Z,97721.56
2023-03-06T04:09:20.400Z,97716.47
2023-03-06T04:10:11.861Z,97713.06
2023-03-06T04:11:03.151Z,97723.50
2023-03-06T04:11:53.758Z,97720.06
2023-03-06T04:12:43.772Z,97723.56
2023-03-06T04:13:33.951Z,97723.56
2023-03-06T04:14:24.632Z,97721.75
2023-03-06T04:15:15.251Z,97728.78
2023-03-06T04:16:05.776Z,97726.19
2023-03-06T04:16:56.043Z,97722.72
2023-03-06T04:17:46.520Z,97727.13
2023-03-06T04:18:36.620Z,97726.19
2023-03-06T04:19:27.197Z,97722.63
2023-03-06T04:20:17.941Z,97727.09
2023-03-06T04:21:08.184Z,97725.31
2023-03-06T04:22:02.492Z,97727.94
2023-03-06T04:22:52.904Z,97721.91
2023-03-06T04:23:43.420Z,97721.84
2023-03-06T04:24:33.981Z,97727.81
2023-03-06T04:25:24.535Z,97720.91
2023-03-06T04:26:14.852Z,97726.16
2023-03-06T04:27:05.262Z,97719.16
2023-03-06T04:27:55.710Z,97721.69
2023-03-06T04:28:46.151Z,97718.12
2023-03-06T04:29:36.574Z,97719.97
2023-03-06T04:30:27.057Z,97717.34
2023-03-06T04:31:17.660Z,97715.56
2023-03-06T04:32:11.573Z,97722.47
2023-03-06T04:33:02.070Z,97719.88
2023-03-06T04:33:52.507Z,97721.63
2023-03-06T04:34:43.146Z,97722.47
2023-03-06T04:35:33.516Z,97713.91
2023-03-06T04:36:31.695Z,97721.66
2023-03-06T04:37:24.130Z,97715.69
2023-03-06T04:38:14.345Z,97720.06
2023-03-06T04:39:04.401Z,97714.84
2023-03-06T04:39:55.273Z,97718.34
2023-03-06T04:40:45.737Z,97715.63
2023-03-06T04:41:35.899Z,97716.56
2023-03-06T04:42:26.156Z,97719.97
2023-03-06T04:43:16.577Z,97717.41
2023-03-06T04:44:07.272Z,97723.47
2023-03-06T04:44:57.964Z,97718.12
2023-03-06T04:45:47.679Z,97718.12
2023-03-06T04:46:38.304Z,97713.84
2023-03-06T04:47:28.849Z,97714.78
2023-03-06T04:48:18.988Z,97716.47
2023-03-06T04:49:09.975Z,97718.28
2023-03-06T04:50:00.052Z,97713.91
2023-03-06T04:50:50.386Z,97719.94
2023-03-06T04:51:40.432Z,97716.41
2023-03-06T04:52:31.239Z,97709.47
2023-03-06T04:53:21.921Z,97711.25
2023-03-06T04:54:12.518Z,97712.06
2023-03-06T04:55:08.673Z,97708.56
2023-03-06T04:55:59.474Z,97707.69
2023-03-06T04:56:49.945Z,97707.66
2023-03-06T04:57:43.586Z,97706.84
2023-03-06T04:58:34.010Z,97704.31
2023-03-06T04:59:24.244Z,97709.53
2023-03-06T05:00:17.409Z,97709.41
2023-03-06T05:01:07.793Z,97701.69
2023-03-06T05:01:58.269Z,97704.31
2023-03-06T05:02:48.440Z,97707.78
2023-03-06T05:03:39.287Z,97704.22
2023-03-06T05:04:29.996Z,97712.03
2023-03-06T05:05:20.180Z,97709.47
2023-03-06T05:06:10.856Z,97709.50
2023-03-06T05:07:01.487Z,97712.06
2023-03-06T05:07:51.718Z,97711.16
2023-03-06T05:08:41.882Z,97705.94
2023-03-06T05:09:33.943Z,97703.47
2023-03-06T05:10:24.628Z,97709.53
2023-03-06T05:11:15.228Z,97713.78
2023-03-06T05:12:05.716Z,97712.06
2023-03-06T05:12:56.044Z,97709.63
2023-03-06T05:13:46.681Z,97715.56
2023-03-06T05:14:37.640Z,97704.31
2023-03-06T05:15:27.746Z,97700.91
2023-03-06T05:16:21.126Z,97704.41
2023-03-06T05:17:11.611Z,97700.88
2023-03-06T05:18:01.615Z,97709.41
2023-03-06T05:18:51.358Z,97712.06
2023-03-06T05:19:41.877Z,97706.03
2023-03-06T05:20:32.439Z,97700.88
2023-03-06T05:21:22.535Z,97706.97
2023-03-06T05:22:12.922Z,97703.53
2023-03-06T05:23:02.830Z,97712.16
2023-03-06T05:23:53.202Z,97716.63
2023-03-06T05:24:43.568Z,97709.75
2023-03-06T05:25:33.688Z,97713.91
2023-03-06T05:26:24.750Z,97710.44
2023-03-06T05:27:16.809Z,97720.00
2023-03-06T05:28:07.835Z,97717.47
2023-03-06T05:28:58.313Z,97718.31
2023-03-06T05:29:48.799Z,97714.87
2023-03-06T05:30:39.842Z,97708.81
2023-03-06T05:31:30.389Z,97717.50
2023-03-06T05:32:21.604Z,97717.56
2023-03-06T05:33:11.702Z,97709.78
2023-03-06T05:34:02.226Z,97711.44
2023-03-06T05:34:52.723Z,97711.44
2023-03-06T05:35:47.405Z,97714.09
2023-03-06T05:36:37.675Z,97709.88
2023-03-06T05:37:28.350Z,97716.16
2023-03-06T05:38:18.853Z,97715.47
2023-03-06T05:39:09.078Z,97714.69
2023-03-06T05:39:59.504Z,97712.03
2023-03-06T05:40:50.048Z,97711.03
2023-03-06T05:41:40.288Z,97710.88
2023-03-06T05:42:31.070Z,97715.25
2023-03-06T05:43:22.134Z,97716.16
2023-03-06T05:44:12.353Z,97716.19
2023-03-06T05:45:02.942Z,97717.88
2023-03-06T05:46:02.631Z,97717.81
2023-03-06T05:46:53.051Z,97721.31
2023-03-06T05:47:43.372Z,97715.94
2023-03-06T05:48:33.520Z,97722.87
2023-03-06T05:49:23.650Z,97712.50
2023-03-06T05:50:14.889Z,97716.75
2023-03-06T05:51:05.305Z,97713.22
2023-03-06T05:51:55.465Z,97709.81
2023-03-06T05:52:46.059Z,97713.34
2023-03-06T05:53:36.694Z,97711.56
2023-03-06T05:54:27.083Z,97711.50
2023-03-06T05:55:19.684Z,97712.34
2023-03-06T05:56:10.081Z,97708.91
2023-03-06T05:57:00.867Z,97702.81
2023-03-06T05:57:51.707Z,97710.72
2023-03-06T05:58:42.403Z,97702.94
2023-03-06T05:59:33.240Z,97710.75
2023-03-06T06:00:24.851Z,97709.94
2023-03-06T06:01:16.675Z,97709.81
2023-03-06T06:02:07.277Z,97714.16
2023-03-06T06:03:01.226Z,97714.19
2023-03-06T06:03:51.666Z,97713.31
2023-03-06T06:04:42.075Z,97715.94
2023-03-06T06:05:32.408Z,97715.09
2023-03-06T06:06:22.932Z,97720.22
2023-03-06T06:07:14.074Z,97721.31
2023-03-06T06:08:04.552Z,97722.22
2023-03-06T06:08:54.789Z,97718.75
2023-03-06T06:09:45.794Z,97715.34
2023-03-06T06:10:36.109Z,97722.06
2023-03-06T06:11:26.521Z,97711.59
2023-03-06T06:12:16.346Z,97714.25
2023-03-06T06:13:06.822Z,97723.78
2023-03-06T06:13:57.138Z,97715.88
2023-03-06T06:14:47.331Z,97718.50
2023-03-06T06:15:38.497Z,97719.47
2023-03-06T06:16:29.129Z,97719.66
2023-03-06T06:17:19.776Z,97725.66
2023-03-06T06:18:10.204Z,97722.13
2023-03-06T06:19:00.708Z,97726.59
2023-03-06T06:19:51.067Z,97731.69
2023-03-06T06:20:41.658Z,97724.75
2023-03-06T06:21:32.187Z,97729.06
2023-03-06T06:22:22.946Z,97727.31
2023-03-06T06:23:13.166Z,97728.22
2023-03-06T06:24:04.175Z,97727.28
2023-03-06T06:24:54.925Z,97726.44
2023-03-06T06:25:45.504Z,97731.69
2023-03-06T06:26:35.797Z,97729.91
2023-03-06T06:27:26.349Z,97736.03
2023-03-06T06:28:16.678Z,97729.91
2023-03-06T06:29:07.223Z,97732.00
2023-03-06T06:29:57.542Z,97730.06
2023-03-06T06:30:48.272Z,97734.31
2023-03-06T06:31:38.904Z,97730.84
2023-03-06T06:32:29.638Z,97739.66
2023-03-06T06:33:19.871Z,97735.41
2023-03-06T06:34:12.984Z,97735.31
2023-03-06T06:35:03.936Z,97736.97
2023-03-06T06:35:54.539Z,97730.69
2023-03-06T06:36:44.550Z,97736.56
2023-03-06T06:37:34.885Z,97735.56
2023-03-06T06:38:25.295Z,97734.59
2023-03-06T06:39:16.652Z,97732.06
2023-03-06T06:40:07.956Z,97724.22
2023-03-06T06:41:31.185Z,97728.50
2023-03-06T06:42:29.443Z,97725.94
2023-03-06T06:43:20.302Z,97727.13
2023-03-06T06:44:14.500Z,97727.69
2023-03-06T06:45:05.639Z,97732.91
2023-03-06T06:46:10.086Z,97722.47
2023-03-06T06:47:22.481Z,97723.47
2023-03-06T06:48:15.158Z,97729.13
2023-03-06T06:49:07.766Z,97729.22
2023-03-06T06:49:58.264Z,97731.09
2023-03-06T06:50:55.829Z,97728.31
2023-03-06T06:51:46.549Z,97734.59
2023-03-06T06:52:36.999Z,97724.13
2023-03-06T06:53:28.248Z,97725.91
2023-03-06T06:54:20.239Z,97721.56
2023-03-06T06:55:11.168Z,97727.47
2023-03-06T06:56:01.555Z,97725.84
2023-03-06T06:56:51.839Z,97726.84
2023-03-06T06:57:42.615Z,97723.34
2023-03-06T06:58:33.047Z,97725.91
2023-03-06T06:59:24.010Z,97720.94
2023-03-06T07:00:14.840Z,97725.31
2023-03-06T07:01:12.399Z,97727.88
2023-03-06T07:02:02.983Z,97734.44
2023-03-06T07:02:53.445Z,97734.22
2023-03-06T07:03:44.120Z,97731.22
2023-03-06T07:04:34.671Z,97736.25
2023-03-06T07:05:24.935Z,97733.62
2023-03-06T07:06:15.124Z,97728.50
2023-03-06T07:07:05.636Z,97733.69
2023-03-06T07:07:56.312Z,97725.94
2023-03-06T07:08:46.774Z,97731.09
2023-03-06T07:09:39.820Z,97736.16
2023-03-06T07:10:30.614Z,97738.72
2023-03-06T07:11:21.321Z,97737.59
2023-03-06T07:12:12.185Z,97740.97
2023-03-06T07:13:02.996Z,97745.31
2023-03-06T07:13:53.805Z,97744.28
2023-03-06T07:14:44.253Z,97748.62
2023-03-06T07:15:34.773Z,97743.41
2023-03-06T07:16:25.411Z,97745.13
2023-03-06T07:17:15.953Z,97741.66
2023-03-06T07:18:06.620Z,97746.09
2023-03-06T07:18:57.186Z,97747.06
2023-03-06T07:19:48.357Z,97744.53
2023-03-06T07:20:39.799Z,97746.28
2023-03-06T07:21:30.659Z,97752.81
2023-03-06T07:22:20.997Z,97752.87
2023-03-06T07:23:12.691Z,97754.44
2023-03-06T07:24:03.424Z,97754.44
2023-03-06T07:24:53.757Z,97751.03
2023-03-06T07:25:44.374Z,97750.38
2023-03-06T07:26:35.261Z,97752.16
2023-03-06T07:27:26.378Z,97753.59
2023-03-06T07:28:18.615Z,97747.44
2023-03-06T07:29:10.744Z,97745.47
2023-03-06T07:30:01.552Z,97742.06
2023-03-06T07:30:52.112Z,97747.44
2023-03-06T07:31:42.791Z,97744.94
2023-03-06T07:32:33.504Z,97747.59
2023-03-06T07:33:24.431Z,97740.44
2023-03-06T07:34:15.016Z,97746.31
2023-03-06T07:35:19.440Z,97747.19
2023-03-06T07:36:12.824Z,97748.12
2023-03-06T07:37:04.509Z,97747.22
2023-03-06T07:37:55.061Z,97740.94
2023-03-06T07:38:45.653Z,97748.94
2023-03-06T07:39:36.302Z,97748.97
2023-03-06T07:40:26.846Z,97741.22
2023-03-06T07:41:21.214Z,97750.91
2023-03-06T07:42:13.686Z,97745.75
2023-03-06T07:43:18.372Z,97755.94
2023-03-06T07:44:09.882Z,97748.78
2023-03-06T07:45:01.301Z,97754.06
2023-03-06T07:45:58.948Z,97744.41
2023-03-06T07:46:49.409Z,97749.56
2023-03-06T07:47:40.401Z,97753.72
2023-03-06T07:48:31.383Z,97752.22
2023-03-06T07:49:21.802Z,97749.88
2023-03-06T07:50:12.319Z,97750.06
2023-03-06T07:51:04.723Z,97757.06
2023-03-06T07:51:55.547Z,97756.09
2023-03-06T07:52:46.371Z,97754.09
2023-03-06T07:53:36.984Z,97754.91
2023-03-06T07:54:28.334Z,97754.13
2023-03-06T07:55:18.792Z,97759.38
2023-03-06T07:56:09.608Z,97754.94
2023-03-06T07:57:00.415Z,97755.00
2023-03-06T07:57:51.695Z,97756.62
2023-03-06T07:58:43.953Z,97762.75
2023-03-06T07:59:34.209Z,97760.47
2023-03-06T08:00:25.524Z,97766.06
2023-03-06T08:01:18.300Z,97763.19
2023-03-06T08:02:11.191Z,97767.16
2023-03-06T08:03:02.350Z,97759.44
2023-03-06T08:03:53.414Z,97768.06
2023-03-06T08:04:44.109Z,97760.31
2023-03-06T08:05:34.715Z,97763.00
2023-03-06T08:06:26.445Z,97765.69
2023-03-06T08:07:16.991Z,97760.13
2023-03-06T08:08:07.427Z,97759.06
2023-03-06T08:09:00.315Z,97759.84
2023-03-06T08:09:51.108Z,97765.66
2023-03-06T08:10:41.687Z,97764.69
2023-03-06T08:11:33.453Z,97752.13
2023-03-06T08:12:23.891Z,97751.94
2023-03-06T08:13:14.765Z,97753.03
2023-03-06T08:14:05.471Z,97755.81
2023-03-06T08:14:55.778Z,97756.66
2023-03-06T08:15:49.605Z,97752.22
2023-03-06T08:16:40.237Z,97748.78
2023-03-06T08:17:30.429Z,97747.00
2023-03-06T08:18:20.890Z,97749.69
2023-03-06T08:19:11.572Z,97752.41
2023-03-06T08:20:02.237Z,97762.06
2023-03-06T08:21:01.974Z,97754.19
2023-03-06T08:21:52.768Z,97750.47
2023-03-06T08:22:43.458Z,97752.87
2023-03-06T08:23:34.306Z,97749.09
2023-03-06T08:24:25.326Z,97746.16
2023-03-06T08:25:15.843Z,97749.69
2023-03-06T08:26:11.872Z,97751.59
2023-03-06T08:27:02.770Z,97754.84
2023-03-06T08:27:53.315Z,97751.56
2023-03-06T08:28:43.867Z,97759.69
2023-03-06T08:29:34.235Z,97759.44
2023-03-06T08:30:25.062Z,97752.34
2023-03-06T08:31:30.849Z,97761.28
2023-03-06T08:32:21.311Z,97763.19
2023-03-06T08:33:11.849Z,97759.94
2023-03-06T08:34:04.153Z,97760.00
2023-03-06T08:34:54.677Z,97761.72
2023-03-06T08:35:45.164Z,97764.09
2023-03-06T08:36:35.807Z,97764.78
2023-03-06T08:37:26.321Z,97759.28
2023-03-06T08:38:17.168Z,97759.72
2023-03-06T08:39:08.048Z,97756.50
2023-03-06T08:39:59.053Z,97762.06
2023-03-06T08:40:49.635Z,97765.53
2023-03-06T08:41:40.479Z,97758.50
2023-03-06T08:42:31.407Z,97763.59
2023-03-06T08:43:22.121Z,97761.50
2023-03-06T08:44:13.034Z,97758.19
2023-03-06T08:45:05.513Z,97757.41
2023-03-06T08:45:57.683Z,97763.66
2023-03-06T08:46:49.040Z,97759.56
2023-03-06T08:47:40.082Z,97762.84
2023-03-06T08:48:30.813Z,97761.97
2023-03-06T08:49:21.747Z,97760.69
2023-03-06T08:50:12.380Z,97760.19
2023-03-06T08:51:03.235Z,97756.84
2023-03-06T08:51:53.778Z,97759.66
2023-03-06T08:52:44.576Z,97760.81
2023-03-06T08:53:43.051Z,97759.22
2023-03-06T08:54:36.017Z,97762.66
2023-03-06T08:55:28.176Z,97764.97
2023-03-06T08:56:26.090Z,97752.94
2023-03-06T08:57:19.152Z,97759.72
2023-03-06T08:58:10.149Z,97751.81
2023-03-06T08:59:02.643Z,97744.72
2023-03-06T08:59:53.763Z,97744.84
2023-03-06T09:00:44.469Z,97748.31
2023-03-06T09:01:36.899Z,97740.34
2023-03-06T09:02:27.739Z,97742.12
2023-03-06T09:03:18.870Z,97743.34
2023-03-06T09:04:10.758Z,97745.28
2023-03-06T09:05:01.709Z,97747.88
2023-03-06T09:05:52.341Z,97738.22
2023-03-06T09:06:43.238Z,97741.31
2023-03-06T09:07:33.940Z,97742.50
2023-03-06T09:08:27.091Z,97741.69
2023-03-06T09:09:17.333Z,97735.59
2023-03-06T09:10:08.567Z,97734.69
2023-03-06T09:10:59.079Z,97731.97
2023-03-06T09:11:53.723Z,97731.75
2023-03-06T09:12:50.151Z,97724.97
2023-03-06T09:13:42.846Z,97726.25
2023-03-06T09:14:32.989Z,97728.97
2023-03-06T09:15:23.819Z,97734.97
2023-03-06T09:16:14.278Z,97730.31
2023-03-06T09:17:04.958Z,97737.09
2023-03-06T09:17:55.533Z,97729.41
2023-03-06T09:18:46.137Z,97727.13
2023-03-06T09:19:37.790Z,97732.72
2023-03-06T09:20:28.423Z,97725.81
2023-03-06T09:21:19.630Z,97728.28
2023-03-06T09:22:10.256Z,97725.66
2023-03-06T09:23:00.877Z,97724.44
2023-03-06T09:23:31.891Z,97716.31
2023-03-06T09:23:44.925Z,97716.03
2023-03-06T09:23:57.900Z,97715.06
2023-03-06T09:24:10.848Z,97717.56
2023-03-06T09:24:23.845Z,97717.56
2023-03-06T09:24:37.012Z,97717.50
2023-03-06T09:24:50.792Z,97711.38
2023-03-06T09:25:04.912Z,97713.09
2023-03-06T09:25:20.533Z,97712.16
2023-03-06T09:25:33.539Z,97720.78
2023-03-06T09:25:52.489Z,97717.38
2023-03-06T09:26:08.466Z,97719.94
2023-03-06T09:26:21.886Z,97720.13
2023-03-06T09:26:45.590Z,97716.78
2023-03-06T09:26:59.338Z,97709.13
2023-03-06T09:27:12.462Z,97715.22
2023-03-06T09:27:25.612Z,97718.88
2023-03-06T09:27:38.514Z,97712.69
2023-03-06T09:28:05.207Z,97718.09
2023-03-06T09:28:23.776Z,97719.22
2023-03-06T09:28:39.106Z,97720.06
2023-03-06T09:28:52.253Z,97711.94
2023-03-06T09:29:05.203Z,97708.75
2023-03-06T09:29:20.567Z,97709.50
2023-03-06T09:29:33.605Z,97714.41
2023-03-06T09:29:46.591Z,97719.50
2023-03-06T09:29:59.631Z,97708.00
2023-03-06T09:30:14.863Z,97715.66
2023-03-06T09:30:27.783Z,97712.19
2023-03-06T09:30:43.617Z,97717.34
2023-03-06T09:30:56.733Z,97711.12
2023-03-06T09:31:14.312Z,97719.00
2023-03-06T09:31:27.316Z,97710.28
2023-03-06T09:31:40.276Z,97710.22
2023-03-06T09:31:53.250Z,97717.28
2023-03-06T09:32:06.595Z,97711.28
2023-03-06T09:32:19.618Z,97715.00
2023-03-06T09:32:32.701Z,97711.84
2023-03-06T09:32:45.774Z,97715.47
2023-03-06T09:32:58.854Z,97713.53
2023-03-06T09:33:11.836Z,97710.72
2023-03-06T09:33:24.742Z,97707.41
2023-03-06T09:33:37.995Z,97711.16
2023-03-06T09:33:50.942Z,97706.06
2023-03-06T09:34:03.855Z,97704.41
2023-03-06T09:34:19.472Z,97706.94
2023-03-06T09:34:32.708Z,97712.06
2023-03-06T09:34:45.691Z,97707.78